CYNR

METAR CYNR 101800Z AUTO 05007KT 4SM -SN BKN005 OVC007 M14/M16 A3045 RMK AO2 SLP350
METAR
LOCATION
CYNR
DATE - TIME
101800Z
WIND
050 TRUE @ 7 KNOTS
VISIBILITY
4SM
RUNWAY VISUAL RANGE
NOT REPORTED
WEATHER
SNOW, SLIGHT
CLOUDINESS
BKN005 OVC007
TEMP / DEWPOINT
-14 ºC / -16 ºC
ALTIMETER
30.45 in. Hg
RECENT WEATHER
NOT REPORTED
WIND SHEAR
NOT REPORTED
REMARKS
RMK AO2 SLP350
SEA LEVEL PRESSURE: hPa

CYNR

SPECI CYNR 101759Z AUTO 04007KT 3SM -SN SCT005 OVC007 M14/M16 A3045 RMK AO2 SLP349
SPECI
LOCATION
CYNR
DATE - TIME
101759Z
WIND
040 TRUE @ 7 KNOTS
VISIBILITY
3SM
RUNWAY VISUAL RANGE
NOT REPORTED
WEATHER
SNOW, SLIGHT
CLOUDINESS
SCT005 OVC007
TEMP / DEWPOINT
-14 ºC / -16 ºC
ALTIMETER
30.45 in. Hg
RECENT WEATHER
NOT REPORTED
WIND SHEAR
NOT REPORTED
REMARKS
RMK AO2 SLP349
SEA LEVEL PRESSURE: hPa

CYNR

SPECI CYNR 101753Z AUTO 04008KT 2 1/2SM -SN FEW005 OVC007 M14/M17 A3045 RMK AO2 SLP349
SPECI
LOCATION
CYNR
DATE - TIME
101753Z
WIND
040 TRUE @ 8 KNOTS
VISIBILITY
2 1/2SM
RUNWAY VISUAL RANGE
NOT REPORTED
WEATHER
SNOW, SLIGHT
CLOUDINESS
FEW005 OVC007
TEMP / DEWPOINT
-14 ºC / -17 ºC
ALTIMETER
30.45 in. Hg
RECENT WEATHER
NOT REPORTED
WIND SHEAR
NOT REPORTED
REMARKS
RMK AO2 SLP349
SEA LEVEL PRESSURE: hPa

Your time UTC time
 
 
Weather data provided by AXYS Technologies Inc., www.axystechnologies.com
 
Station History